Norfolk, NE (68701)

22:30 CDT le 29 juin 2015 (GMT -0500)
West Central - Norfolk | | Change Station
CLOSE
Current Station
Stations météorologiques personnelles
Location: Norfolk, NE
Altitude: 1640 ft
Stations météo à proximité

Alt. 1640 ft 42.04 °N, 97.45 °W | Updated 10 seconds ago

Ciel dégagé
Ciel dégagé
72.2 ° F
Paraît 76 ° F
N
0.0
Vent Variable Vent de NNO
Gusts 0.0 mph

Aujourd'hui
Haut(e) -- | Bas -- ° F
--% Risque de précip.
Hier
Haut(e) -- | Bas -- ° F
Precip. -- pouce
5:56 AM 9:09 PM
Lune gibbeuse croissante, 95% visible
Pression 29.91 pouce
Visibilité 7.0 Miles terrestres
Nuages Ciel dégagé
indice de chaleur 76 ° F
Point de rosée 60 ° F
Humidité 65%
Précipitations pouce
Profondeur de la couche neigeuse Non disponible.
UV 0 sur 12
Pollen 5.40 sur 12
Qualité de l'air Non disponible.
Flu Activity No Activity
METAR KOFK 300256Z AUTO 21005KT 7SM CLR 21/18 A2994 RMK AO2 SLP128 T02060183 53002

More Conditions Fewer Conditions

Pression 29.91 pouce
Visibilité 7.0 Miles terrestres
Nuages Ciel dégagé
indice de chaleur 76 ° F
Point de rosée 60 ° F
Humidité 65%
Précipitations pouce
Profondeur de la couche neigeuse Non disponible.
UV 0 sur 12
Pollen 5.40 sur 12
Qualité de l'air Non disponible.
Flu Activity No Activity
METAR KOFK 300256Z AUTO 21005KT 7SM CLR 21/18 A2994 RMK AO2 SLP128 T02060183 53002

More Conditions Fewer Conditions

10-Day Weather Forecast

×

Almanac

Astronomie

Jun. 29, 2015 Lever Coucher
Temps réel
Crépuscule civil
Crépuscule nautique
Crépuscule astronomique
Lune
Durée de lumière visible
Longueur du jour
Tomorrow will be .
, % of the Moon is Illuminated

Extrêmes aujourd'hui

State Highs State Lows

Community

WunderPhotos

Upload Photos

1,833,955 Photos téléchargées !

WunderBlogs® & News

Nearby

Qualité de l'air

  Qualité de l'air Indice de la qualité de l'air Polluant
Not available.

Épaisseur de neige

Station Depth Altitude

Activité sismique

Ville Distance Mag. Time & Date
Minimum magnitude displayed is 2.5.

Températures des eaux côtières

Lieu Température

Stations

Stations météo à proximité

Emplacement de la station Température Refroidissement éolien Point de rosée Humidité Vent Precip. Alt. Mise à jour Type